createdAt,value
2023-03-16T00:00:19.172Z,5.60
2023-03-16T00:02:46.175Z,5.65
2023-03-16T00:05:15.072Z,5.68
2023-03-16T00:07:42.911Z,4.82
2023-03-16T00:10:12.681Z,5.20
2023-03-16T00:12:40.446Z,4.65
2023-03-16T00:15:08.207Z,4.40
2023-03-16T00:17:35.096Z,5.13
2023-03-16T00:20:06.909Z,5.15
2023-03-16T00:22:34.830Z,5.38
2023-03-16T00:25:02.008Z,5.35
2023-03-16T00:27:29.459Z,4.80
2023-03-16T00:29:56.720Z,5.50
2023-03-16T00:32:33.915Z,5.45
2023-03-16T00:35:02.464Z,6.45
2023-03-16T00:37:30.230Z,6.35
2023-03-16T00:39:58.772Z,6.50
2023-03-16T00:42:29.615Z,6.18
2023-03-16T00:44:58.182Z,6.00
2023-03-16T00:47:28.581Z,7.30
2023-03-16T00:49:56.228Z,6.97
2023-03-16T00:52:23.981Z,6.15
2023-03-16T00:54:53.145Z,6.72
2023-03-16T00:57:23.040Z,7.13
2023-03-16T00:59:49.831Z,7.50
2023-03-16T01:02:20.106Z,8.10
2023-03-16T01:04:46.930Z,8.85
2023-03-16T01:07:15.204Z,8.68
2023-03-16T01:09:43.391Z,8.25
2023-03-16T01:12:15.099Z,9.27
2023-03-16T01:14:42.544Z,8.98
2023-03-16T01:17:10.245Z,9.55
2023-03-16T01:19:37.976Z,9.52
2023-03-16T01:22:07.414Z,9.98
2023-03-16T01:24:37.400Z,9.80
2023-03-16T01:27:05.396Z,10.23
2023-03-16T01:29:33.353Z,11.30
2023-03-16T01:32:02.233Z,9.57
2023-03-16T01:34:29.086Z,10.32
2023-03-16T01:36:56.432Z,10.02
2023-03-16T01:39:23.488Z,9.82
2023-03-16T01:41:50.288Z,11.30
2023-03-16T01:44:22.902Z,11.32
2023-03-16T01:46:49.830Z,11.18
2023-03-16T01:49:28.785Z,10.95
2023-03-16T01:52:09.104Z,11.15
2023-03-16T01:55:00.924Z,11.05
2023-03-16T01:57:37.095Z,9.93
2023-03-16T02:00:18.747Z,11.05
2023-03-16T02:02:52.991Z,11.50
2023-03-16T02:05:20.610Z,11.63
2023-03-16T02:07:49.997Z,11.20
2023-03-16T02:10:20.061Z,12.32
2023-03-16T02:12:47.494Z,13.68
2023-03-16T02:15:15.505Z,14.32
2023-03-16T02:17:45.154Z,15.60
2023-03-16T02:20:51.986Z,13.30
2023-03-16T02:23:22.176Z,15.68
2023-03-16T02:26:02.791Z,13.98
2023-03-16T02:28:56.637Z,14.95
2023-03-16T02:31:23.811Z,13.38
2023-03-16T02:33:53.251Z,12.32
2023-03-16T02:36:21.112Z,13.27
2023-03-16T02:38:47.949Z,14.15
2023-03-16T02:41:18.545Z,14.27
2023-03-16T02:43:57.245Z,14.55
2023-03-16T02:46:27.414Z,13.02
2023-03-16T02:49:25.179Z,12.52
2023-03-16T02:51:52.485Z,11.48
2023-03-16T02:54:19.705Z,10.45
2023-03-16T02:56:46.559Z,9.70
2023-03-16T02:59:13.487Z,10.40
2023-03-16T03:01:40.343Z,10.63
2023-03-16T03:04:07.539Z,9.73
2023-03-16T03:06:34.371Z,9.38
2023-03-16T03:09:02.205Z,10.98
2023-03-16T03:11:29.346Z,9.45
2023-03-16T03:13:57.031Z,9.02
2023-03-16T03:16:24.101Z,8.85
2023-03-16T03:18:52.876Z,8.02
2023-03-16T03:21:20.105Z,8.55
2023-03-16T03:23:47.174Z,7.93
2023-03-16T03:26:17.987Z,7.90
2023-03-16T03:28:45.306Z,8.02
2023-03-16T03:31:21.540Z,7.13
2023-03-16T03:33:49.216Z,6.68
2023-03-16T03:36:16.636Z,7.22
2023-03-16T03:38:44.267Z,6.65
2023-03-16T03:41:11.187Z,6.68
2023-03-16T03:43:38.164Z,6.07
2023-03-16T03:46:05.403Z,5.72
2023-03-16T03:48:32.817Z,5.40
2023-03-16T03:50:59.638Z,5.30
2023-03-16T03:53:26.454Z,5.72
2023-03-16T03:55:53.567Z,5.15
2023-03-16T03:58:20.379Z,5.30
2023-03-16T04:00:47.712Z,5.53
2023-03-16T04:03:14.891Z,4.90
2023-03-16T04:05:42.055Z,5.00
2023-03-16T04:08:09.181Z,5.05
2023-03-16T04:10:35.938Z,4.03
2023-03-16T04:13:02.740Z,3.90
2023-03-16T04:15:30.553Z,3.70
2023-03-16T04:17:57.377Z,3.55
2023-03-16T04:20:24.163Z,3.13
2023-03-16T04:22:58.546Z,3.72
2023-03-16T04:25:27.474Z,3.10
2023-03-16T04:27:54.781Z,3.25
2023-03-16T04:30:23.592Z,3.13
2023-03-16T04:32:52.402Z,2.88
2023-03-16T04:35:20.041Z,3.13
2023-03-16T04:37:46.920Z,2.63
2023-03-16T04:40:17.613Z,2.50
2023-03-16T04:42:46.455Z,1.92
2023-03-16T04:45:14.812Z,1.90
2023-03-16T04:47:41.885Z,1.67
2023-03-16T04:50:10.626Z,2.25
2023-03-16T04:52:37.452Z,1.88
2023-03-16T04:55:05.219Z,1.63
2023-03-16T04:57:32.419Z,1.58
2023-03-16T04:59:59.181Z,1.40
2023-03-16T05:02:26.031Z,1.80
2023-03-16T05:04:52.824Z,1.58
2023-03-16T05:07:19.675Z,1.73
2023-03-16T05:09:46.675Z,1.25
2023-03-16T05:12:13.483Z,1.50
2023-03-16T05:14:40.318Z,1.70
2023-03-16T05:17:07.225Z,1.48
2023-03-16T05:19:34.146Z,1.70
2023-03-16T05:22:01.009Z,1.67
2023-03-16T05:24:27.855Z,1.80
2023-03-16T05:26:54.676Z,2.20
2023-03-16T05:29:21.549Z,1.75
2023-03-16T05:31:48.316Z,2.25
2023-03-16T05:34:15.294Z,1.83
2023-03-16T05:36:42.397Z,2.00
2023-03-16T05:39:09.160Z,2.03
2023-03-16T05:41:36.562Z,2.10
2023-03-16T05:44:04.793Z,2.05
2023-03-16T05:46:32.172Z,2.10
2023-03-16T05:48:59.319Z,2.10
2023-03-16T05:51:26.607Z,2.00
2023-03-16T05:53:57.304Z,2.10
2023-03-16T05:56:26.751Z,2.30
2023-03-16T05:58:55.269Z,2.38
2023-03-16T06:01:23.981Z,2.03
2023-03-16T06:03:52.273Z,2.30
2023-03-16T06:06:21.749Z,2.03
2023-03-16T06:08:49.030Z,2.30
2023-03-16T06:11:16.198Z,2.60
2023-03-16T06:13:43.268Z,2.63
2023-03-16T06:16:11.757Z,2.78
2023-03-16T06:18:39.820Z,2.95
2023-03-16T06:21:06.855Z,2.97
2023-03-16T06:23:34.217Z,3.65
2023-03-16T06:26:01.557Z,4.13
2023-03-16T06:28:31.521Z,3.42
2023-03-16T06:30:58.818Z,4.63
2023-03-16T06:33:26.287Z,4.15
2023-03-16T06:35:53.217Z,4.35
2023-03-16T06:38:20.351Z,3.85
2023-03-16T06:40:55.019Z,3.58
2023-03-16T06:43:22.325Z,3.75
2023-03-16T06:45:49.329Z,3.47
2023-03-16T06:48:16.210Z,3.22
2023-03-16T06:50:46.702Z,3.30
2023-03-16T06:53:13.568Z,3.38
2023-03-16T06:55:40.921Z,3.20
2023-03-16T06:58:07.931Z,3.72
2023-03-16T07:00:34.782Z,3.70
2023-03-16T07:03:02.328Z,4.05
2023-03-16T07:05:29.649Z,4.45
2023-03-16T07:07:56.705Z,3.50
2023-03-16T07:10:25.413Z,3.53
2023-03-16T07:12:52.609Z,3.90
2023-03-16T07:15:19.925Z,3.70
2023-03-16T07:17:46.743Z,3.55
2023-03-16T07:20:13.875Z,3.05
2023-03-16T07:22:41.970Z,3.65
2023-03-16T07:25:11.509Z,3.78
2023-03-16T07:27:39.112Z,4.03
2023-03-16T07:30:06.823Z,4.35
2023-03-16T07:32:33.765Z,3.78
2023-03-16T07:35:00.586Z,3.97
2023-03-16T07:37:27.399Z,3.15
2023-03-16T07:39:54.241Z,3.53
2023-03-16T07:42:22.822Z,3.03
2023-03-16T07:44:51.753Z,3.55
2023-03-16T07:47:19.462Z,3.40
2023-03-16T07:49:46.346Z,3.13
2023-03-16T07:52:13.813Z,2.83
2023-03-16T07:54:41.765Z,3.10
2023-03-16T07:57:09.402Z,2.85
2023-03-16T07:59:36.355Z,2.90
2023-03-16T08:02:04.064Z,2.95
2023-03-16T08:04:31.452Z,2.53
2023-03-16T08:07:00.486Z,2.72
2023-03-16T08:09:28.142Z,2.67
2023-03-16T08:11:55.370Z,2.67
2023-03-16T08:14:22.233Z,2.60
2023-03-16T08:16:51.147Z,2.67
2023-03-16T08:19:18.004Z,2.45
2023-03-16T08:22:00.449Z,2.58
2023-03-16T08:24:29.732Z,2.63
2023-03-16T08:26:58.150Z,2.50
2023-03-16T08:29:26.226Z,2.72
2023-03-16T08:31:57.784Z,2.63
2023-03-16T08:34:25.538Z,2.60
2023-03-16T08:36:52.735Z,2.97
2023-03-16T08:39:20.511Z,3.10
2023-03-16T08:41:48.320Z,2.60
2023-03-16T08:44:15.195Z,3.00
2023-03-16T08:46:42.878Z,2.78
2023-03-16T08:49:10.183Z,3.53
2023-03-16T08:51:37.226Z,3.47
2023-03-16T08:54:04.426Z,3.10
2023-03-16T08:56:31.330Z,3.40
2023-03-16T08:58:58.612Z,3.50
2023-03-16T09:01:26.799Z,3.15
2023-03-16T09:03:53.724Z,3.28
2023-03-16T09:06:22.062Z,3.20
2023-03-16T09:08:49.160Z,3.85
2023-03-16T09:11:18.925Z,3.13
2023-03-16T09:13:46.258Z,3.40
2023-03-16T09:16:15.920Z,3.40
2023-03-16T09:18:43.692Z,3.22
2023-03-16T09:21:14.068Z,3.03
2023-03-16T09:23:44.546Z,2.97
2023-03-16T09:26:12.836Z,3.35
2023-03-16T09:28:42.396Z,3.15
2023-03-16T09:31:13.054Z,2.70
2023-03-16T09:33:40.319Z,3.05
2023-03-16T09:36:07.417Z,3.85
2023-03-16T09:38:34.244Z,3.50
2023-03-16T09:41:10.882Z,2.90
2023-03-16T09:43:59.817Z,2.90
2023-03-16T09:46:36.396Z,3.10
2023-03-16T09:49:03.867Z,3.28
2023-03-16T09:51:49.226Z,3.30
2023-03-16T09:54:47.697Z,3.63
2023-03-16T09:57:43.517Z,4.03
2023-03-16T10:03:05.187Z,3.53
2023-03-16T10:05:34.040Z,3.83
2023-03-16T10:08:26.860Z,2.70
2023-03-16T10:11:10.947Z,3.47
2023-03-16T10:13:54.269Z,3.35
2023-03-16T10:16:51.582Z,3.50
2023-03-16T10:19:37.741Z,3.20
2023-03-16T10:22:20.701Z,3.70
2023-03-16T10:25:13.185Z,3.10
2023-03-16T10:27:43.768Z,3.10
2023-03-16T10:30:24.865Z,3.35
2023-03-16T10:32:52.712Z,3.30
2023-03-16T10:35:48.473Z,2.85
2023-03-16T10:38:43.088Z,2.65
2023-03-16T10:41:22.563Z,3.22
2023-03-16T10:44:07.654Z,2.50
2023-03-16T10:47:06.470Z,2.88
2023-03-16T10:49:49.000Z,2.72
2023-03-16T10:52:25.261Z,3.20
2023-03-16T10:54:58.165Z,3.47
2023-03-16T10:57:27.970Z,3.72
2023-03-16T10:59:59.152Z,3.90
2023-03-16T11:02:33.485Z,3.60
2023-03-16T11:05:31.882Z,3.28
2023-03-16T11:08:22.080Z,2.70
2023-03-16T11:11:00.853Z,2.80
2023-03-16T11:13:37.920Z,3.03
2023-03-16T11:16:24.122Z,2.60
2023-03-16T11:18:56.894Z,2.78
2023-03-16T11:21:51.885Z,3.00
2023-03-16T11:24:51.790Z,3.03
2023-03-16T11:27:42.742Z,3.50
2023-03-16T11:30:25.042Z,3.67
2023-03-16T11:32:54.198Z,3.10
2023-03-16T11:35:38.458Z,2.72
2023-03-16T11:38:21.800Z,3.10
2023-03-16T11:41:07.727Z,3.05
2023-03-16T11:43:57.099Z,2.90
2023-03-16T11:46:34.511Z,3.30
2023-03-16T11:49:39.533Z,3.50
2023-03-16T11:52:32.545Z,3.10
2023-03-16T11:55:20.021Z,3.40
2023-03-16T11:57:59.617Z,3.33
2023-03-16T12:00:52.904Z,3.28
2023-03-16T12:03:54.115Z,2.72
2023-03-16T12:06:40.683Z,3.15
2023-03-16T12:09:58.442Z,2.70
2023-03-16T12:12:28.590Z,2.50
2023-03-16T12:15:33.143Z,3.42
2023-03-16T12:18:11.263Z,2.80
2023-03-16T12:20:53.124Z,2.50
2023-03-16T12:23:43.606Z,2.50
2023-03-16T12:26:12.538Z,2.05
2023-03-16T12:28:42.311Z,2.08
2023-03-16T12:31:17.989Z,1.98
2023-03-16T12:34:25.978Z,2.15
2023-03-16T12:36:52.815Z,1.77
2023-03-16T12:40:09.370Z,1.90
2023-03-16T12:43:03.243Z,1.85
2023-03-16T12:45:54.893Z,1.95
2023-03-16T12:48:25.311Z,1.50
2023-03-16T12:50:56.988Z,2.13
2023-03-16T12:53:55.325Z,1.45
2023-03-16T12:56:38.098Z,1.58
2023-03-16T12:59:07.770Z,1.50
2023-03-16T13:01:43.933Z,1.65
2023-03-16T13:04:34.078Z,1.85
2023-03-16T13:07:08.892Z,2.33
2023-03-16T13:09:42.328Z,2.25
2023-03-16T13:12:10.616Z,1.58
2023-03-16T13:14:44.786Z,1.65
2023-03-16T13:17:17.559Z,1.50
2023-03-16T13:20:06.935Z,1.50
2023-03-16T13:22:50.157Z,2.40
2023-03-16T13:25:22.705Z,1.52
2023-03-16T13:27:56.355Z,1.50
2023-03-16T13:30:32.402Z,1.60
2023-03-16T13:33:19.936Z,1.77
2023-03-16T13:35:51.256Z,2.17
2023-03-16T13:38:22.775Z,2.17
2023-03-16T13:40:53.187Z,1.60
2023-03-16T13:43:29.326Z,1.58
2023-03-16T13:45:56.612Z,1.48
2023-03-16T13:48:24.346Z,1.95
2023-03-16T13:50:53.344Z,1.60
2023-03-16T13:53:29.351Z,1.60
2023-03-16T13:55:59.273Z,1.92
2023-03-16T13:58:37.824Z,2.00
2023-03-16T14:01:18.097Z,2.95
2023-03-16T14:03:45.677Z,2.60
2023-03-16T14:06:28.887Z,2.13
2023-03-16T14:09:04.001Z,1.98
2023-03-16T14:11:31.187Z,2.05
2023-03-16T14:14:00.682Z,2.33
2023-03-16T14:16:32.256Z,2.28
2023-03-16T14:19:08.086Z,2.72
2023-03-16T14:21:35.393Z,2.45
2023-03-16T14:24:06.208Z,2.60
2023-03-16T14:26:46.226Z,2.60
2023-03-16T14:29:31.192Z,2.63
2023-03-16T14:32:00.174Z,3.00
2023-03-16T14:34:32.879Z,3.42
2023-03-16T14:37:14.966Z,4.03
2023-03-16T14:39:42.624Z,4.50
2023-03-16T14:42:29.260Z,3.63
2023-03-16T14:44:58.944Z,3.70
2023-03-16T14:47:31.259Z,3.03
2023-03-16T14:50:06.452Z,2.67
2023-03-16T14:52:35.308Z,2.47
2023-03-16T14:55:15.133Z,3.22
2023-03-16T14:57:43.165Z,3.22
2023-03-16T15:00:13.814Z,2.97
2023-03-16T15:02:44.045Z,2.53
2023-03-16T15:05:22.558Z,3.55
2023-03-16T15:07:54.792Z,3.08
2023-03-16T15:10:32.687Z,3.15
2023-03-16T15:13:13.384Z,3.08
2023-03-16T15:15:42.672Z,3.38
2023-03-16T15:18:10.277Z,2.55
2023-03-16T15:20:44.064Z,2.88
2023-03-16T15:23:15.479Z,3.10
2023-03-16T15:25:46.090Z,3.20
2023-03-16T15:28:21.965Z,2.95
2023-03-16T15:30:52.233Z,2.63
2023-03-16T15:33:19.845Z,2.47
2023-03-16T15:35:49.459Z,3.35
2023-03-16T15:38:23.735Z,2.90
2023-03-16T15:40:53.293Z,3.00
2023-03-16T15:43:29.008Z,2.92
2023-03-16T15:45:58.957Z,3.10
2023-03-16T15:48:26.414Z,3.13
2023-03-16T15:51:27.573Z,3.03
2023-03-16T15:53:59.653Z,4.03
2023-03-16T15:56:33.511Z,4.07
2023-03-16T15:59:11.191Z,4.57
2023-03-16T16:01:45.240Z,3.63
2023-03-16T16:04:22.900Z,3.47
2023-03-16T16:06:54.534Z,3.45
2023-03-16T16:09:22.595Z,2.97
2023-03-16T16:11:50.628Z,3.30
2023-03-16T16:14:24.893Z,3.17
2023-03-16T16:16:51.969Z,3.00
2023-03-16T16:19:19.016Z,3.33
2023-03-16T16:21:47.631Z,3.05
2023-03-16T16:24:14.492Z,3.25
2023-03-16T16:26:54.945Z,3.50
2023-03-16T16:29:32.093Z,2.70
2023-03-16T16:31:59.296Z,2.53
2023-03-16T16:34:27.441Z,3.10
2023-03-16T16:36:56.531Z,3.60
2023-03-16T16:39:24.323Z,3.42
2023-03-16T16:41:54.904Z,3.53
2023-03-16T16:44:27.536Z,3.78
2023-03-16T16:46:55.494Z,4.32
2023-03-16T16:49:26.046Z,3.65
2023-03-16T16:51:54.167Z,3.47
2023-03-16T16:54:24.212Z,4.65
2023-03-16T16:56:54.021Z,3.45
2023-03-16T16:59:25.633Z,3.60
2023-03-16T17:01:57.508Z,3.33
2023-03-16T17:04:28.215Z,2.67
2023-03-16T17:07:02.218Z,2.97
2023-03-16T17:09:30.452Z,3.05
2023-03-16T17:12:02.412Z,3.08
2023-03-16T17:14:31.471Z,3.13
2023-03-16T17:17:05.224Z,3.10
2023-03-16T17:19:32.998Z,2.47
2023-03-16T17:22:00.227Z,2.90
2023-03-16T17:24:29.884Z,3.17
2023-03-16T17:27:00.445Z,3.40
2023-03-16T17:29:34.538Z,4.80
2023-03-16T17:32:04.906Z,4.30
2023-03-16T17:34:34.505Z,3.70
2023-03-16T17:37:02.358Z,4.80
2023-03-16T17:39:34.676Z,4.60
2023-03-16T17:42:07.132Z,3.50
2023-03-16T17:44:40.016Z,3.05
2023-03-16T17:47:22.802Z,2.75
2023-03-16T17:49:50.955Z,2.50
2023-03-16T17:52:25.534Z,2.47
2023-03-16T17:54:53.988Z,2.53
2023-03-16T17:57:32.884Z,2.50
2023-03-16T18:00:01.920Z,2.60
2023-03-16T18:02:58.944Z,2.08
2023-03-16T18:05:37.376Z,2.40
2023-03-16T18:08:13.555Z,2.83
2023-03-16T18:10:41.008Z,3.42
2023-03-16T18:13:19.477Z,2.60
2023-03-16T18:15:48.088Z,2.22
2023-03-16T18:18:21.723Z,2.40
2023-03-16T18:20:51.196Z,2.78
2023-03-16T18:23:31.105Z,2.30
2023-03-16T18:26:04.139Z,2.50
2023-03-16T18:28:31.775Z,3.00
2023-03-16T18:30:59.431Z,2.80
2023-03-16T18:33:36.649Z,2.88
2023-03-16T18:36:08.102Z,2.88
2023-03-16T18:38:44.956Z,2.75
2023-03-16T18:41:19.761Z,2.40
2023-03-16T18:43:47.805Z,3.10
2023-03-16T18:46:36.752Z,2.80
2023-03-16T18:49:14.692Z,3.08
2023-03-16T18:51:43.481Z,3.03
2023-03-16T18:54:27.146Z,3.50
2023-03-16T18:56:54.376Z,3.58
2023-03-16T18:59:21.382Z,4.28
2023-03-16T19:01:48.576Z,3.95
2023-03-16T19:04:29.562Z,4.28
2023-03-16T19:06:57.626Z,4.10
2023-03-16T19:09:31.196Z,4.63
2023-03-16T19:11:59.097Z,4.72
2023-03-16T19:14:34.265Z,4.68
2023-03-16T19:17:01.810Z,4.40
2023-03-16T19:19:28.663Z,4.90
2023-03-16T19:21:58.979Z,5.35
2023-03-16T19:24:31.356Z,5.40
2023-03-16T19:26:58.356Z,5.13
2023-03-16T19:29:34.685Z,5.35
2023-03-16T19:32:02.411Z,5.50
2023-03-16T19:34:29.835Z,5.35
2023-03-16T19:36:56.781Z,5.47
2023-03-16T19:39:23.701Z,5.57
2023-03-16T19:41:58.098Z,5.72
2023-03-16T19:44:27.703Z,6.63
2023-03-16T19:46:55.257Z,5.68
2023-03-16T19:49:26.147Z,5.82
2023-03-16T19:51:55.147Z,6.20
2023-03-16T19:54:28.607Z,5.93
2023-03-16T19:56:58.677Z,6.65
2023-03-16T19:59:32.751Z,6.05
2023-03-16T20:02:00.339Z,5.55
2023-03-16T20:04:28.524Z,7.00
2023-03-16T20:06:55.843Z,6.70
2023-03-16T20:09:22.836Z,7.30
2023-03-16T20:11:50.262Z,7.63
2023-03-16T20:14:33.156Z,7.65
2023-03-16T20:17:00.307Z,8.20
2023-03-16T20:19:27.330Z,9.00
2023-03-16T20:21:54.188Z,8.57
2023-03-16T20:24:22.304Z,8.90
2023-03-16T20:26:51.600Z,9.55
2023-03-16T20:29:30.109Z,10.05
2023-03-16T20:31:58.218Z,8.73
2023-03-16T20:34:30.044Z,10.65
2023-03-16T20:36:57.997Z,9.00
2023-03-16T20:39:25.071Z,9.02
2023-03-16T20:41:52.673Z,9.32
2023-03-16T20:44:21.442Z,9.43
2023-03-16T20:46:48.782Z,9.38
2023-03-16T20:49:22.080Z,10.50
2023-03-16T20:51:52.004Z,10.25
2023-03-16T20:54:18.975Z,9.77
2023-03-16T20:56:49.545Z,10.55
2023-03-16T20:59:25.076Z,9.63
2023-03-16T21:01:54.862Z,9.23
2023-03-16T21:04:31.964Z,11.13
2023-03-16T21:07:02.291Z,10.70
2023-03-16T21:09:32.759Z,11.85
2023-03-16T21:12:00.151Z,10.70
2023-03-16T21:14:27.372Z,11.43
2023-03-16T21:16:54.931Z,12.70
2023-03-16T21:19:24.117Z,12.05
2023-03-16T21:21:51.877Z,12.52
2023-03-16T21:24:18.702Z,12.98
2023-03-16T21:26:47.868Z,13.23
2023-03-16T21:29:18.992Z,11.98
2023-03-16T21:31:47.072Z,13.32
2023-03-16T21:34:24.567Z,12.65
2023-03-16T21:36:51.931Z,12.77
2023-03-16T21:39:25.350Z,13.32
2023-03-16T21:41:53.802Z,13.05
2023-03-16T21:44:20.944Z,12.95
2023-03-16T21:46:48.464Z,12.20
2023-03-16T21:49:16.154Z,12.20
2023-03-16T21:51:43.511Z,12.32
2023-03-16T21:54:18.169Z,12.75
2023-03-16T21:56:46.177Z,12.45
2023-03-16T21:59:13.252Z,12.75
2023-03-16T22:01:58.254Z,14.02
2023-03-16T22:04:28.006Z,15.40
2023-03-16T22:06:55.023Z,13.35
2023-03-16T22:09:30.096Z,13.15
2023-03-16T22:14:23.873Z,12.75
2023-03-16T22:16:50.674Z,13.55
2023-03-16T22:19:18.257Z,13.23
2023-03-16T22:21:46.759Z,13.38
2023-03-16T22:24:30.467Z,14.65
2023-03-16T22:26:58.132Z,14.02
2023-03-16T22:29:33.905Z,12.20
2023-03-16T22:32:06.024Z,12.50
2023-03-16T22:34:43.797Z,13.07
2023-03-16T22:37:17.502Z,12.80
2023-03-16T22:39:45.127Z,12.70
2023-03-16T22:42:37.374Z,14.45
2023-03-16T22:45:26.581Z,13.70
2023-03-16T22:47:56.551Z,13.80
2023-03-16T22:50:26.740Z,13.80
2023-03-16T22:52:58.692Z,14.82
2023-03-16T22:55:32.895Z,14.85
2023-03-16T22:58:10.728Z,13.77
2023-03-16T23:00:38.289Z,15.43
2023-03-16T23:03:06.024Z,14.63
2023-03-16T23:05:32.895Z,14.73
2023-03-16T23:08:02.748Z,13.50
2023-03-16T23:10:31.410Z,14.30
2023-03-16T23:13:00.732Z,14.13
2023-03-16T23:15:30.688Z,15.50
2023-03-16T23:17:57.998Z,15.60
2023-03-16T23:20:29.999Z,16.02
2023-03-16T23:22:57.117Z,16.23
2023-03-16T23:25:24.528Z,15.15
2023-03-16T23:27:52.760Z,15.43
2023-03-16T23:30:26.168Z,16.10
2023-03-16T23:32:54.698Z,16.27
2023-03-16T23:35:29.117Z,13.27
2023-03-16T23:37:56.473Z,10.85
2023-03-16T23:40:27.288Z,15.55
2023-03-16T23:42:57.488Z,16.25
2023-03-16T23:45:38.022Z,14.15
2023-03-16T23:48:11.293Z,16.17
2023-03-16T23:50:38.203Z,15.18
2023-03-16T23:53:12.573Z,13.93
2023-03-16T23:55:41.291Z,13.32
2023-03-16T23:58:11.729Z,13.85
